Time;durP1;ratioP1;P1;durP2;ratioP2;P2;SDS_P1;SDS_P2;PMS_P1;PMS_P2;Temp;Humidity;BMP_temperature;BMP_pressure;BME280_temperature;BME280_humidity;BME280_pressure;Samples;Min_cycle;Max_cycle;Signal;HPM_P1;HPM_P2
2022/04/13 00:02:10;;;;;;;6.27;3.63;;;;;;;5.02;100.00;96338.38;4845639;29;20575;-76
2022/04/13 00:04:36;;;;;;;4.80;3.77;;;;;;;4.46;100.00;96336.72;4861253;29;20443;-76
2022/04/13 00:07:03;;;;;;;3.47;3.17;;;;;;;4.17;100.00;96302.13;4844282;29;20908;-75
2022/04/13 00:09:30;;;;;;;3.60;3.23;;;;;;;4.44;100.00;96334.41;4849599;29;20464;-75
2022/04/13 00:11:56;;;;;;;3.10;2.90;;;;;;;4.49;100.00;96314.44;4859907;29;20455;-75
2022/04/13 00:14:23;;;;;;;3.40;3.10;;;;;;;4.37;100.00;96289.47;4859930;29;20755;-77
2022/04/13 00:16:54;;;;;;;3.10;2.80;;;;;;;4.62;100.00;96324.16;4844396;29;20445;-76
2022/04/13 00:19:21;;;;;;;4.03;3.60;;;;;;;4.49;100.00;96278.56;4861275;29;20464;-75
2022/04/13 00:21:48;;;;;;;4.67;3.17;;;;;;;4.67;100.00;96314.41;4859725;29;20559;-75
2022/04/13 00:24:15;;;;;;;3.50;3.20;;;;;;;4.48;100.00;96279.63;4859721;29;21052;-75
2022/04/13 00:26:42;;;;;;;3.60;3.30;;;;;;;4.77;100.00;96323.91;4859517;29;20452;-75
2022/04/13 00:29:10;;;;;;;4.40;3.07;;;;;;;4.93;100.00;96333.03;4859403;29;20484;-75
2022/04/13 00:31:36;;;;;;;5.30;3.17;;;;;;;4.77;100.00;96294.31;4859808;29;20630;-75
2022/04/13 00:34:03;;;;;;;3.47;3.17;;;;;;;4.64;100.00;96299.22;4860830;29;20519;-75
2022/04/13 00:36:30;;;;;;;4.37;3.13;;;;;;;4.43;100.00;96274.47;4860826;29;20526;-75
2022/04/13 00:38:56;;;;;;;4.30;3.80;;;;;;;4.62;100.00;96329.41;4860692;29;20559;-75
2022/04/13 00:41:23;;;;;;;4.00;3.60;;;;;;;4.41;100.00;96334.97;4844023;29;21039;-75
2022/04/13 00:44:11;;;;;;;5.50;5.00;;;;;;;4.12;100.00;96327.28;4860379;29;20848;-75
2022/04/13 00:46:38;;;;;;;3.87;3.67;;;;;;;3.98;100.00;96318.59;4874711;29;20460;-75
2022/04/13 00:49:06;;;;;;;5.80;3.57;;;;;;;4.03;100.00;96318.53;4860445;29;20460;-75
2022/04/13 00:51:33;;;;;;;5.27;3.77;;;;;;;4.24;100.00;96324.22;4874846;29;20432;-75
2022/04/13 00:54:00;;;;;;;7.40;3.60;;;;;;;3.99;100.00;96294.00;4859176;29;20888;-75
2022/04/13 00:56:29;;;;;;;4.30;3.50;;;;;;;4.33;100.00;96327.00;4859350;29;20461;-75
2022/04/13 00:59:02;;;;;;;9.13;4.00;;;;;;;3.80;100.00;96265.25;4858640;29;20479;-76
2022/04/13 01:01:29;;;;;;;10.33;4.50;;;;;;;4.04;100.00;96298.38;4859950;29;20475;-75
2022/04/13 01:03:57;;;;;;;9.90;4.27;;;;;;;3.97;100.00;96297.97;4843598;29;20467;-75
2022/04/13 01:06:25;;;;;;;6.80;3.80;;;;;;;3.83;100.00;96290.06;4858880;29;20440;-75
2022/04/13 01:08:51;;;;;;;4.97;3.40;;;;;;;3.96;100.00;96323.34;4857794;29;20924;-75
2022/04/13 01:11:18;;;;;;;4.70;4.30;;;;;;;4.00;100.00;96287.69;4858663;29;20443;-75
2022/04/13 01:13:45;;;;;;;4.23;3.83;;;;;;;4.07;100.00;96316.91;4858939;29;20483;-75
2022/04/13 01:16:13;;;;;;;5.03;3.67;;;;;;;3.73;100.00;96266.66;4858748;29;20451;-75
2022/04/13 01:18:40;;;;;;;5.60;4.87;;;;;;;3.77;100.00;96317.34;4858475;29;21000;-75
2022/04/13 01:21:13;;;;;;;3.93;3.53;;;;;;;3.64;100.00;96278.84;4858614;29;20476;-75
2022/04/13 01:24:16;;;;;;;5.33;3.90;;;;;;;3.85;100.00;96321.91;4860155;29;20429;-75
2022/04/13 01:26:43;;;;;;;4.53;3.10;;;;;;;3.57;100.00;96287.00;4860088;29;20445;-75
2022/04/13 01:29:10;;;;;;;6.20;3.00;;;;;;;3.44;100.00;96251.13;4858453;29;20485;-75
2022/04/13 01:31:37;;;;;;;3.90;3.57;;;;;;;3.84;100.00;96307.28;4858563;29;20508;-75
2022/04/13 01:34:04;;;;;;;3.87;3.53;;;;;;;3.58;100.00;96295.63;4859780;29;20436;-76
2022/04/13 01:36:33;;;;;;;3.90;3.33;;;;;;;3.80;100.00;96306.31;4842920;29;20450;-76
2022/04/13 01:39:00;;;;;;;5.27;3.47;;;;;;;3.45;100.00;96310.16;4861281;29;20468;-75
2022/04/13 01:41:27;;;;;;;3.07;2.70;;;;;;;3.51;100.00;96309.84;4857897;29;20544;-75
2022/04/13 01:43:54;;;;;;;4.40;2.70;;;;;;;3.74;100.00;96321.31;4857888;29;20487;-75
2022/04/13 01:46:21;;;;;;;9.60;5.00;;;;;;;3.64;100.00;96318.81;4857925;29;20539;-75
2022/04/13 01:48:47;;;;;;;5.73;3.57;;;;;;;3.42;100.00;96277.53;4859270;29;21118;-75
2022/04/13 01:51:14;;;;;;;9.73;3.90;;;;;;;3.75;100.00;96325.47;4859212;29;20512;-75
2022/04/13 01:53:41;;;;;;;6.43;3.33;;;;;;;3.22;100.00;96303.94;4859282;29;20527;-75
2022/04/13 01:56:07;;;;;;;8.67;3.50;;;;;;;3.43;100.00;96312.28;4858057;29;20531;-76
2022/04/13 01:58:34;;;;;;;7.10;3.20;;;;;;;3.53;100.00;96331.22;4858739;29;20483;-75
2022/04/13 02:01:01;;;;;;;6.60;3.33;;;;;;;3.46;100.00;96315.09;4858748;29;20467;-75
2022/04/13 02:03:28;;;;;;;5.23;3.47;;;;;;;3.50;100.00;96318.72;4859408;29;20468;-76
2022/04/13 02:06:32;;;;;;;13.37;4.00;;;;;;;3.52;100.00;96326.28;4860562;29;20895;-75
2022/04/13 02:09:08;;;;;;;4.67;4.00;;;;;;;3.25;100.00;96316.41;4846864;29;20459;-75
2022/04/13 02:11:34;;;;;;;5.80;5.00;;;;;;;3.08;100.00;96313.50;4859282;29;20446;-75
2022/04/13 02:14:01;;;;;;;9.90;7.60;;;;;;;3.38;100.00;96312.34;4859054;29;20530;-75
2022/04/13 02:16:28;;;;;;;10.20;6.20;;;;;;;3.16;100.00;96281.50;4858899;29;20437;-75
2022/04/13 02:18:54;;;;;;;10.23;5.07;;;;;;;2.94;100.00;96282.03;4842393;29;20580;-75
2022/04/13 02:21:21;;;;;;;5.47;4.60;;;;;;;2.91;100.00;96259.84;4869730;29;20788;-75
2022/04/13 02:23:48;;;;;;;5.40;4.90;;;;;;;3.09;100.00;96315.03;4865027;29;20501;-75
2022/04/13 02:26:15;;;;;;;5.00;4.50;;;;;;;3.09;100.00;96302.75;4863640;29;20480;-75
2022/04/13 02:28:42;;;;;;;5.13;4.50;;;;;;;2.85;100.00;96284.47;4864835;29;20463;-75
2022/04/13 02:31:08;;;;;;;5.70;4.20;;;;;;;2.86;100.00;96304.31;4849119;29;20598;-75
2022/04/13 02:33:35;;;;;;;5.07;4.60;;;;;;;2.49;100.00;96281.44;4863849;29;20463;-75
2022/04/13 02:36:02;;;;;;;5.93;4.03;;;;;;;2.41;100.00;96260.41;4863510;29;20439;-75
2022/04/13 02:38:28;;;;;;;6.80;3.67;;;;;;;2.84;100.00;96310.88;4863419;29;20491;-75
2022/04/13 02:40:55;;;;;;;4.43;4.00;;;;;;;2.78;100.00;96311.94;4848496;29;20447;-75
2022/04/13 02:43:24;;;;;;;4.53;4.07;;;;;;;2.82;100.00;96307.75;4863797;29;21012;-75
2022/04/13 02:45:51;;;;;;;9.90;4.37;;;;;;;2.95;100.00;96291.44;4863464;29;20452;-75
2022/04/13 02:48:18;;;;;;;3.90;3.43;;;;;;;3.03;100.00;96316.91;4863818;29;20440;-75
2022/04/13 02:50:44;;;;;;;5.50;3.80;;;;;;;2.60;100.00;96258.63;4864336;29;20460;-75
2022/04/13 02:53:11;;;;;;;3.17;2.97;;;;;;;2.94;100.00;96290.66;4863811;29;20539;-75
2022/04/13 02:55:37;;;;;;;7.60;3.50;;;;;;;3.00;100.00;96320.09;4863368;29;21093;-75
2022/04/13 02:58:05;;;;;;;5.57;3.73;;;;;;;2.78;100.00;96299.69;4864031;29;20451;-75
2022/04/13 03:00:31;;;;;;;3.97;3.33;;;;;;;2.97;100.00;96318.81;4865253;29;20517;-76
2022/04/13 03:02:58;;;;;;;4.63;3.50;;;;;;;2.48;100.00;96290.31;4848246;29;20476;-75
2022/04/13 03:05:25;;;;;;;3.37;3.03;;;;;;;2.57;100.00;96300.94;4848403;29;20441;-75
2022/04/13 03:07:52;;;;;;;6.70;4.37;;;;;;;2.63;100.00;96315.50;4848103;29;20439;-75
2022/04/13 03:10:19;;;;;;;9.80;3.43;;;;;;;2.46;100.00;96287.22;4864989;29;20498;-75
2022/04/13 03:12:45;;;;;;;2.90;2.60;;;;;;;2.68;100.00;96294.56;4864500;29;20471;-75
2022/04/13 03:15:12;;;;;;;5.47;3.10;;;;;;;2.24;100.00;96256.34;4848526;29;20512;-75
2022/04/13 03:17:39;;;;;;;4.57;3.60;;;;;;;2.48;100.00;96261.63;4865235;29;20440;-75
2022/04/13 03:20:07;;;;;;;4.93;3.20;;;;;;;2.69;100.00;96316.22;4848341;29;20479;-75
2022/04/13 03:22:33;;;;;;;4.37;3.13;;;;;;;2.78;100.00;96325.78;4865168;29;20566;-75
2022/04/13 03:25:01;;;;;;;3.67;3.37;;;;;;;2.84;100.00;96329.91;4863805;29;20529;-75
2022/04/13 03:27:27;;;;;;;5.10;3.90;;;;;;;2.36;100.00;96274.25;4863918;29;20451;-75
2022/04/13 03:29:54;;;;;;;3.77;3.10;;;;;;;2.38;100.00;96319.09;4848438;29;20579;-75
2022/04/13 03:32:21;;;;;;;4.80;2.90;;;;;;;1.78;100.00;96306.22;4862394;29;20441;-75
2022/04/13 03:34:47;;;;;;;3.63;3.27;;;;;;;2.15;100.00;96320.59;4845383;29;20523;-75
2022/04/13 03:37:14;;;;;;;5.03;3.00;;;;;;;2.16;100.00;96292.69;4845742;29;21188;-75
2022/04/13 03:39:41;;;;;;;3.60;3.30;;;;;;;1.90;100.00;96276.44;4865482;29;20525;-75
2022/04/13 03:42:07;;;;;;;5.60;3.47;;;;;;;2.03;100.00;96326.16;4853853;29;20485;-75
2022/04/13 03:44:34;;;;;;;4.17;3.50;;;;;;;1.80;100.00;96256.44;4857377;29;20508;-75
2022/04/13 03:47:01;;;;;;;5.27;4.03;;;;;;;1.99;100.00;96267.75;4844871;29;20539;-75
2022/04/13 03:49:27;;;;;;;4.77;4.30;;;;;;;1.94;100.00;96270.41;4861355;29;20455;-75
2022/04/13 03:51:54;;;;;;;8.63;4.03;;;;;;;2.17;100.00;96300.22;4859872;29;21019;-75
2022/04/13 03:54:21;;;;;;;11.83;5.10;;;;;;;2.38;100.00;96319.09;4866349;29;20475;-75
2022/04/13 03:56:47;;;;;;;5.17;4.57;;;;;;;2.11;100.00;96264.81;4870401;29;20447;-76
2022/04/13 03:59:14;;;;;;;4.90;4.50;;;;;;;2.17;100.00;96292.41;4885329;29;20503;-76
2022/04/13 04:01:41;;;;;;;4.33;3.93;;;;;;;2.01;100.00;96285.75;4860525;29;20447;-76
2022/04/13 04:04:10;;;;;;;12.03;6.27;;;;;;;1.93;100.00;96260.25;4845457;29;20494;-75
2022/04/13 04:06:36;;;;;;;8.10;6.57;;;;;;;2.21;100.00;96303.06;4861559;29;20535;-76
2022/04/13 04:09:03;;;;;;;12.13;6.03;;;;;;;2.20;100.00;96323.16;4859779;29;20944;-76
2022/04/13 04:11:29;;;;;;;18.73;6.60;;;;;;;2.35;100.00;96354.34;4834110;29;20466;-75
2022/04/13 04:13:56;;;;;;;9.70;7.03;;;;;;;1.83;100.00;96297.59;4859296;29;20620;-75
2022/04/13 04:16:23;;;;;;;17.53;6.03;;;;;;;2.02;100.00;96347.28;4845934;29;20448;-76
2022/04/13 04:18:50;;;;;;;7.80;6.47;;;;;;;1.51;100.00;96310.28;4860747;29;20920;-76
2022/04/13 04:21:16;;;;;;;6.67;5.97;;;;;;;1.32;100.00;96305.69;4860855;29;20797;-75
2022/04/13 04:23:43;;;;;;;8.33;5.03;;;;;;;1.45;100.00;96351.19;4844055;29;20460;-75
2022/04/13 04:26:10;;;;;;;4.43;4.03;;;;;;;1.55;100.00;96351.16;4860717;29;20435;-75
2022/04/13 04:28:37;;;;;;;8.40;4.60;;;;;;;1.50;100.00;96314.72;4859467;29;20516;-75
2022/04/13 04:31:04;;;;;;;7.27;4.60;;;;;;;2.01;100.00;96356.16;4859602;29;20448;-75
2022/04/13 04:33:30;;;;;;;8.77;4.30;;;;;;;1.57;100.00;96276.13;4859394;29;20986;-76
2022/04/13 04:35:57;;;;;;;8.03;4.53;;;;;;;2.12;100.00;96351.63;4860693;29;20440;-75
2022/04/13 04:38:26;;;;;;;7.70;6.43;;;;;;;2.28;100.00;96366.94;4858993;29;20450;-76
2022/04/13 04:40:54;;;;;;;11.07;8.93;;;;;;;2.28;100.00;96373.97;4874527;29;20435;-75
2022/04/13 04:43:20;;;;;;;13.17;6.80;;;;;;;1.84;100.00;96329.66;4859902;29;20480;-76
2022/04/13 04:45:47;;;;;;;11.67;6.27;;;;;;;1.72;100.00;96353.41;4861031;29;20505;-76
2022/04/13 04:48:14;;;;;;;9.40;7.87;;;;;;;1.51;100.00;96338.94;4858883;29;20452;-75
2022/04/13 04:50:40;;;;;;;10.03;5.60;;;;;;;1.63;100.00;96361.03;4859112;29;20901;-76
2022/04/13 04:53:07;;;;;;;7.40;5.43;;;;;;;1.40;100.00;96330.41;4859044;29;20442;-76
2022/04/13 04:55:34;;;;;;;7.80;7.03;;;;;;;1.70;100.00;96361.50;4860025;29;20485;-75
2022/04/13 04:58:02;;;;;;;10.23;6.20;;;;;;;1.09;100.00;96307.09;4860001;29;20478;-76
2022/04/13 05:00:35;;;;;;;6.83;5.03;;;;;;;1.95;100.00;96362.44;4858841;29;20532;-75
2022/04/13 05:03:01;;;;;;;5.87;5.27;;;;;;;1.88;100.00;96352.31;4858727;29;20472;-76
2022/04/13 05:05:29;;;;;;;12.93;7.73;;;;;;;1.88;100.00;96304.63;4858684;29;20462;-75
2022/04/13 05:07:56;;;;;;;7.60;6.30;;;;;;;2.28;100.00;96360.94;4858701;29;20470;-76
2022/04/13 05:10:22;;;;;;;10.13;6.10;;;;;;;1.94;100.00;96330.38;4858997;29;20487;-76
2022/04/13 05:12:51;;;;;;;11.40;7.30;;;;;;;1.93;100.00;96346.28;4858758;29;20495;-75
2022/04/13 05:15:18;;;;;;;7.30;6.50;;;;;;;1.95;100.00;96344.19;4844035;29;20454;-76
2022/04/13 05:17:45;;;;;;;5.57;5.00;;;;;;;2.18;100.00;96338.31;4860544;29;20435;-76
2022/04/13 05:20:12;;;;;;;9.83;5.97;;;;;;;2.22;100.00;96326.25;4860443;29;20478;-76
2022/04/13 05:22:38;;;;;;;7.33;5.17;;;;;;;2.50;100.00;96363.09;4844089;29;20592;-75
2022/04/13 05:25:11;;;;;;;6.40;5.80;;;;;;;2.49;100.00;96375.38;4860629;29;20475;-75
2022/04/13 05:27:38;;;;;;;9.83;6.40;;;;;;;2.43;100.00;96381.69;4858731;29;20551;-75
2022/04/13 05:30:06;;;;;;;8.50;6.43;;;;;;;2.57;100.00;96381.84;4859526;29;20901;-75
2022/04/13 05:32:47;;;;;;;12.00;8.80;;;;;;;2.74;100.00;96389.25;4858832;29;20475;-75
2022/04/13 05:35:14;;;;;;;9.40;8.40;;;;;;;2.72;100.00;96392.16;4858834;29;20546;-76
2022/04/13 05:37:40;;;;;;;11.50;9.27;;;;;;;2.44;100.00;96354.53;4860371;29;20454;-76
2022/04/13 05:40:07;;;;;;;13.43;9.07;;;;;;;2.54;100.00;96343.25;4859372;29;20551;-76
2022/04/13 05:42:34;;;;;;;16.20;8.23;;;;;;;2.65;100.00;96350.69;4862741;29;20515;-76
2022/04/13 05:45:01;;;;;;;16.47;9.27;;;;;;;2.90;100.00;96383.63;4869883;29;20480;-76
2022/04/13 05:47:28;;;;;;;14.43;8.43;;;;;;;2.93;100.00;96345.75;4866407;29;20463;-76
2022/04/13 05:49:55;;;;;;;10.87;8.47;;;;;;;3.10;100.00;96394.94;4858584;29;20524;-76
2022/04/13 05:52:22;;;;;;;9.13;7.37;;;;;;;3.12;100.00;96377.16;4859312;29;20455;-75
2022/04/13 05:54:48;;;;;;;9.00;6.60;;;;;;;3.28;100.00;96349.81;4843159;29;20458;-76
2022/04/13 05:57:15;;;;;;;11.43;7.47;;;;;;;3.63;100.00;96393.06;4842837;29;20941;-76
2022/04/13 05:59:41;;;;;;;14.70;8.83;;;;;;;3.83;100.00;96399.88;4858077;29;20847;-75
2022/04/13 06:02:08;;;;;;;11.63;8.57;;;;;;;3.75;100.00;96371.75;4857842;29;20452;-75
2022/04/13 06:04:35;;;;;;;11.10;8.43;;;;;;;3.72;100.00;96359.22;4859585;29;20470;-76
2022/04/13 06:07:02;;;;;;;10.77;8.03;;;;;;;4.11;100.00;96392.97;4856895;29;20432;-76
2022/04/13 06:09:28;;;;;;;15.37;10.43;;;;;;;3.82;100.00;96354.66;4846924;29;20562;-76
2022/04/13 06:11:55;;;;;;;13.30;9.23;;;;;;;4.14;100.00;96374.91;4858025;29;20458;-76
2022/04/13 06:14:22;;;;;;;21.03;12.00;;;;;;;4.54;100.00;96390.25;4842481;29;20479;-76
2022/04/13 06:16:48;;;;;;;16.93;9.80;;;;;;;4.64;100.00;96387.47;4859131;29;20449;-76
2022/04/13 06:19:15;;;;;;;14.30;9.53;;;;;;;4.85;100.00;96401.03;4842672;29;20472;-76
2022/04/13 06:21:41;;;;;;;12.30;8.97;;;;;;;4.79;100.00;96378.59;4857999;29;20911;-76
2022/04/13 06:24:08;;;;;;;12.80;9.60;;;;;;;4.85;100.00;96361.75;4857768;29;20472;-76
2022/04/13 06:26:35;;;;;;;10.97;8.77;;;;;;;5.17;100.00;96384.50;4842316;29;20474;-76
2022/04/13 06:29:02;;;;;;;9.43;8.43;;;;;;;5.25;100.00;96374.13;4858599;29;20484;-76
2022/04/13 06:31:28;;;;;;;18.10;8.70;;;;;;;5.52;100.00;96417.16;4858257;29;20615;-75
2022/04/13 06:33:55;;;;;;;11.37;6.70;;;;;;;5.21;100.00;96373.16;4858337;29;21005;-76
2022/04/13 06:36:22;;;;;;;11.50;6.67;;;;;;;5.63;100.00;96414.06;4857748;29;20523;-76
2022/04/13 06:38:49;;;;;;;10.47;6.50;;;;;;;5.82;100.00;96421.81;4858893;29;20494;-76
2022/04/13 06:41:16;;;;;;;7.77;6.80;;;;;;;5.58;100.00;96387.13;4859010;29;20440;-76
2022/04/13 06:43:42;;;;;;;6.87;5.37;;;;;;;6.09;100.00;96421.03;4842653;29;20567;-76
2022/04/13 06:46:09;;;;;;;9.13;6.60;;;;;;;6.17;100.00;96412.47;4859594;29;20494;-76
2022/04/13 06:48:36;;;;;;;13.33;6.37;;;;;;;6.49;100.00;96398.38;4858259;29;20527;-76
2022/04/13 06:51:03;;;;;;;11.40;6.70;;;;;;;6.56;100.00;96386.69;4857417;29;20463;-76
2022/04/13 06:53:30;;;;;;;7.50;5.60;;;;;;;7.23;100.00;96432.09;4842469;29;20535;-76
2022/04/13 06:55:57;;;;;;;8.20;6.17;;;;;;;7.39;100.00;96414.84;4857645;29;20477;-76
2022/04/13 06:58:24;;;;;;;9.77;6.50;;;;;;;7.65;100.00;96386.00;4858684;29;20540;-76
2022/04/13 07:00:51;;;;;;;12.00;6.20;;;;;;;8.22;100.00;96417.53;4857432;29;20543;-76
2022/04/13 07:03:17;;;;;;;11.93;6.63;;;;;;;8.37;100.00;96412.94;4842220;29;21086;-76
2022/04/13 07:05:44;;;;;;;15.23;7.50;;;;;;;8.73;100.00;96441.63;4857618;29;20459;-76
2022/04/13 07:08:11;;;;;;;8.10;6.43;;;;;;;8.84;100.00;96422.53;4859778;29;20501;-76
2022/04/13 07:10:38;;;;;;;12.70;6.70;;;;;;;9.20;100.00;96431.91;4862279;29;20447;-76
2022/04/13 07:13:10;;;;;;;7.57;6.63;;;;;;;9.37;100.00;96446.97;4861271;29;21001;-76
2022/04/13 07:15:38;;;;;;;6.97;6.27;;;;;;;9.49;100.00;96439.16;4862288;29;20504;-76
2022/04/13 07:18:04;;;;;;;8.10;7.30;;;;;;;9.11;100.00;96423.28;4861763;29;20451;-76
2022/04/13 07:20:31;;;;;;;8.50;6.70;;;;;;;9.48;99.95;96427.03;4861310;29;20491;-76
2022/04/13 07:22:58;;;;;;;9.20;6.87;;;;;;;9.45;97.11;96428.44;4862285;29;20446;-76
2022/04/13 07:25:26;;;;;;;10.77;7.47;;;;;;;9.89;96.33;96433.56;4845401;29;21013;-77
2022/04/13 07:27:53;;;;;;;7.43;6.20;;;;;;;9.99;91.30;96443.75;4860640;29;21014;-77
2022/04/13 07:30:20;;;;;;;9.97;7.40;;;;;;;10.36;92.30;96456.13;4860371;29;20505;-76
2022/04/13 07:32:47;;;;;;;8.43;6.67;;;;;;;10.24;87.82;96442.06;4860557;29;20479;-76
2022/04/13 07:35:15;;;;;;;8.67;7.10;;;;;;;10.38;91.07;96450.53;4860662;29;20449;-76
2022/04/13 07:37:43;;;;;;;7.80;6.50;;;;;;;10.44;86.40;96430.75;4861547;29;20479;-76
2022/04/13 07:40:12;;;;;;;8.07;6.63;;;;;;;10.79;84.94;96467.50;4860198;29;21059;-76
2022/04/13 07:42:39;;;;;;;9.90;7.33;;;;;;;10.85;83.68;96450.34;4845244;29;20480;-75
2022/04/13 07:45:07;;;;;;;9.50;6.60;;;;;;;10.88;82.41;96437.25;4860563;29;20472;-76
2022/04/13 07:47:34;;;;;;;10.43;7.90;;;;;;;11.19;82.06;96449.25;4864784;29;20441;-76
2022/04/13 07:50:00;;;;;;;8.40;6.97;;;;;;;11.27;80.42;96431.75;4861876;29;20458;-76
2022/04/13 07:52:27;;;;;;;8.60;6.37;;;;;;;11.09;79.35;96439.88;4860624;29;20481;-76
2022/04/13 07:54:53;;;;;;;8.17;6.77;;;;;;;11.28;79.57;96460.53;4850331;29;20465;-76
2022/04/13 07:57:20;;;;;;;10.30;7.90;;;;;;;11.15;76.46;96422.66;4876072;29;20484;-76
2022/04/13 07:59:47;;;;;;;10.07;6.77;;;;;;;11.61;76.33;96465.00;4861832;29;20480;-76
2022/04/13 08:02:18;;;;;;;10.30;7.40;;;;;;;11.60;75.65;96453.63;4861952;29;20552;-76
2022/04/13 08:04:45;;;;;;;8.10;6.47;;;;;;;11.92;74.72;96477.78;4862985;29;20480;-76
2022/04/13 08:07:11;;;;;;;9.00;7.80;;;;;;;11.60;75.09;96437.75;4846755;29;20488;-76
2022/04/13 08:09:39;;;;;;;11.80;8.80;;;;;;;12.00;73.01;96466.28;4861911;29;20479;-76
2022/04/13 08:12:06;;;;;;;9.63;7.50;;;;;;;11.90;73.76;96479.97;4861930;29;20554;-76
2022/04/13 08:14:32;;;;;;;9.90;8.03;;;;;;;12.22;73.31;96467.72;4861983;29;20528;-76
2022/04/13 08:17:03;;;;;;;9.33;7.40;;;;;;;12.00;71.69;96463.63;4845200;29;20572;-76
2022/04/13 08:19:31;;;;;;;11.80;9.03;;;;;;;12.22;73.30;96486.28;4868461;29;20550;-77
2022/04/13 08:21:57;;;;;;;12.10;8.73;;;;;;;12.14;72.84;96461.41;4859651;29;20491;-77
2022/04/13 08:24:24;;;;;;;9.63;7.60;;;;;;;12.67;73.43;96484.22;4859866;29;20508;-76
2022/04/13 08:26:51;;;;;;;13.70;6.90;;;;;;;12.32;72.73;96460.09;4861381;29;20442;-76
2022/04/13 08:29:17;;;;;;;10.70;7.50;;;;;;;12.77;72.16;96485.63;4859601;29;20583;-76
2022/04/13 08:31:44;;;;;;;8.80;7.30;;;;;;;12.40;71.40;96443.25;4844823;29;20485;-77
2022/04/13 08:34:11;;;;;;;9.13;6.80;;;;;;;12.84;70.99;96493.81;4859890;29;20537;-77
2022/04/13 08:36:37;;;;;;;7.83;6.33;;;;;;;12.61;72.49;96458.25;4860570;29;20525;-77
2022/04/13 08:39:06;;;;;;;7.53;6.50;;;;;;;12.92;70.69;96468.22;4859588;29;20474;-77
2022/04/13 08:41:58;;;;;;;7.67;6.07;;;;;;;12.89;70.72;96485.59;4844265;29;20560;-77
2022/04/13 08:44:36;;;;;;;10.00;6.63;;;;;;;13.14;72.05;96496.91;4861213;29;20598;-77
2022/04/13 08:47:11;;;;;;;7.90;6.30;;;;;;;13.00;72.00;96491.97;4861614;29;20437;-77
2022/04/13 08:49:39;;;;;;;10.43;6.90;;;;;;;12.83;72.58;96483.53;4875313;29;20511;-76
2022/04/13 08:52:08;;;;;;;8.27;7.17;;;;;;;13.15;69.92;96506.41;4861966;29;20438;-77
2022/04/13 08:54:44;;;;;;;9.33;7.03;;;;;;;13.43;70.86;96506.44;4857821;29;20525;-77
2022/04/13 08:57:11;;;;;;;10.53;7.53;;;;;;;13.38;70.08;96511.22;4861560;29;20475;-77
2022/04/13 09:00:13;;;;;;;7.70;6.90;;;;;;;13.28;72.02;96507.16;4862459;29;20462;-77
2022/04/13 09:03:05;;;;;;;8.43;6.87;;;;;;;13.64;72.00;96508.09;4883301;29;20437;-75
2022/04/13 09:05:45;;;;;;;8.80;6.40;;;;;;;13.88;70.61;96503.38;4857711;29;20517;-77
2022/04/13 09:08:21;;;;;;;10.00;6.77;;;;;;;13.62;68.58;96481.84;4860005;29;20521;-76
2022/04/13 09:10:50;;;;;;;8.33;5.87;;;;;;;14.14;69.49;96508.19;4860734;29;20476;-77
2022/04/13 09:13:19;;;;;;;8.07;6.27;;;;;;;13.88;69.46;96510.59;4860682;29;20447;-77
2022/04/13 09:15:47;;;;;;;9.87;6.03;;;;;;;14.02;67.61;96500.31;4859657;29;20441;-77
2022/04/13 09:18:15;;;;;;;9.23;6.43;;;;;;;14.04;68.49;96479.47;4861235;29;20446;-76
2022/04/13 09:20:42;;;;;;;7.30;5.40;;;;;;;14.32;68.78;96467.94;4845449;29;20462;-76
2022/04/13 09:23:09;;;;;;;8.77;5.37;;;;;;;14.65;66.83;96499.47;4860781;29;20441;-77
2022/04/13 09:25:39;;;;;;;7.20;5.60;;;;;;;14.77;66.05;96502.00;4859605;29;20475;-77
2022/04/13 09:28:06;;;;;;;7.33;6.60;;;;;;;14.73;64.56;96472.66;4844963;29;20454;-77
2022/04/13 09:30:34;;;;;;;6.90;6.17;;;;;;;14.44;65.12;96470.53;4858812;29;20508;-77
2022/04/13 09:33:02;;;;;;;5.80;5.20;;;;;;;14.93;64.19;96507.28;4844114;29;20484;-77
2022/04/13 09:35:33;;;;;;;6.57;5.97;;;;;;;14.85;64.21;96490.41;4859197;29;20453;-77
2022/04/13 09:38:04;;;;;;;7.00;6.17;;;;;;;14.89;64.48;96495.78;4859623;29;20438;-77
2022/04/13 09:40:39;;;;;;;8.80;5.97;;;;;;;15.08;64.96;96488.56;4859223;29;20466;-77
2022/04/13 09:43:13;;;;;;;8.33;6.10;;;;;;;15.44;64.14;96520.44;4860262;29;20461;-77
2022/04/13 09:45:43;;;;;;;7.10;5.80;;;;;;;15.04;63.82;96470.97;4860371;29;21053;-77
2022/04/13 09:48:12;;;;;;;8.03;6.93;;;;;;;15.20;64.23;96505.53;4860462;29;20997;-77
2022/04/13 09:50:40;;;;;;;8.63;5.43;;;;;;;15.23;64.17;96508.28;4845304;29;20465;-76
2022/04/13 09:53:08;;;;;;;6.10;5.50;;;;;;;14.89;64.47;96509.88;4859422;29;20510;-77
2022/04/13 09:55:41;;;;;;;8.33;5.17;;;;;;;14.54;64.52;96454.00;4858576;29;20437;-77
2022/04/13 09:58:12;;;;;;;8.80;6.23;;;;;;;15.51;66.40;96508.03;4859727;29;20460;-75
2022/04/13 10:00:41;;;;;;;5.90;5.20;;;;;;;15.36;63.44;96515.00;4859021;29;20473;-75
2022/04/13 10:03:11;;;;;;;7.40;6.07;;;;;;;15.54;62.59;96522.56;4842952;29;20449;-75
2022/04/13 10:05:42;;;;;;;8.57;6.90;;;;;;;15.54;61.23;96525.22;4858884;29;21837;-75
2022/04/13 10:08:10;;;;;;;9.47;5.77;;;;;;;15.34;61.01;96498.56;4859263;29;20447;-75
2022/04/13 10:10:43;;;;;;;5.77;5.20;;;;;;;15.60;61.36;96511.25;4858672;29;20830;-75
2022/04/13 10:13:11;;;;;;;5.70;4.87;;;;;;;15.29;61.46;96460.81;4859010;29;20435;-75
2022/04/13 10:15:38;;;;;;;6.30;5.10;;;;;;;15.59;60.73;96485.72;4857508;29;20442;-75
2022/04/13 10:18:05;;;;;;;5.80;5.30;;;;;;;15.78;61.66;96492.16;4857729;29;20443;-75
2022/04/13 10:20:45;;;;;;;6.70;5.40;;;;;;;15.74;61.34;96489.41;4873177;29;20504;-75
2022/04/13 10:23:13;;;;;;;8.10;5.40;;;;;;;15.96;61.52;96463.88;4857704;29;20548;-75
2022/04/13 10:25:42;;;;;;;5.70;4.90;;;;;;;15.90;61.39;96494.66;4857743;29;20473;-75
2022/04/13 10:28:12;;;;;;;5.80;5.00;;;;;;;16.08;57.65;96498.38;4842276;29;20537;-75
2022/04/13 10:30:41;;;;;;;5.77;4.93;;;;;;;16.30;57.29;96485.38;4872777;29;20454;-74
2022/04/13 10:33:13;;;;;;;5.20;4.67;;;;;;;16.55;57.33;96497.13;4857797;29;20447;-75
2022/04/13 10:35:44;;;;;;;5.10;4.70;;;;;;;16.62;57.52;96497.25;4857536;29;20653;-75
2022/04/13 10:38:12;;;;;;;6.10;4.70;;;;;;;16.47;58.02;96490.94;4857613;29;20541;-75
2022/04/13 10:40:41;;;;;;;5.40;4.80;;;;;;;16.15;58.40;96471.00;4857714;29;20474;-75
2022/04/13 10:43:11;;;;;;;10.00;4.47;;;;;;;16.11;58.94;96484.31;4877015;29;20438;-75
2022/04/13 10:45:46;;;;;;;5.07;4.20;;;;;;;16.32;57.42;96469.75;4862553;29;20501;-75
2022/04/13 10:48:21;;;;;;;5.17;4.67;;;;;;;16.39;57.18;96453.84;4861551;29;21009;-76
2022/04/13 10:50:54;;;;;;;8.10;3.77;;;;;;;16.89;57.86;96482.00;4866506;29;20507;-74
2022/04/13 10:53:35;;;;;;;5.43;4.20;;;;;;;16.68;58.69;96471.03;4846299;29;20608;-76
2022/04/13 10:56:04;;;;;;;6.20;4.80;;;;;;;16.56;55.31;96445.31;4873875;29;20545;-76
2022/04/13 10:59:07;;;;;;;6.30;4.40;;;;;;;17.02;56.03;96453.91;4861576;29;20497;-74
2022/04/13 11:02:13;;;;;;;4.63;4.07;;;;;;;17.31;56.72;96449.63;4863310;29;20430;-75
2022/04/13 11:04:41;;;;;;;4.47;4.07;;;;;;;17.22;55.41;96456.41;4851446;29;20502;-75
2022/04/13 11:07:08;;;;;;;5.37;4.63;;;;;;;17.06;55.78;96441.34;4861156;29;20449;-75
2022/04/13 11:09:42;;;;;;;5.87;4.30;;;;;;;17.85;54.63;96464.28;4837666;29;20988;-75
2022/04/13 11:12:09;;;;;;;7.57;3.77;;;;;;;18.20;54.40;96479.88;4847194;29;20422;-75
2022/04/13 11:14:48;;;;;;;5.17;4.30;;;;;;;18.30;55.11;96479.19;4860730;29;20458;-75
2022/04/13 11:17:18;;;;;;;4.13;3.70;;;;;;;17.97;55.14;96471.28;4862061;29;20885;-75
2022/04/13 11:19:47;;;;;;;4.90;4.37;;;;;;;17.75;53.62;96469.56;4845855;29;20474;-75
2022/04/13 11:22:18;;;;;;;5.10;4.60;;;;;;;17.89;53.77;96462.41;4860836;29;20892;-75
2022/04/13 11:24:49;;;;;;;5.03;3.70;;;;;;;18.44;52.53;96473.16;4866789;29;20473;-75
2022/04/13 11:27:16;;;;;;;4.00;3.70;;;;;;;17.87;52.60;96471.94;4860746;29;20537;-74
2022/04/13 11:29:44;;;;;;;6.20;4.80;;;;;;;18.23;53.96;96460.38;4845134;29;20496;-75
2022/04/13 11:32:12;;;;;;;8.70;4.20;;;;;;;18.01;52.16;96447.97;4845094;29;20485;-76
2022/04/13 11:34:49;;;;;;;4.87;4.17;;;;;;;18.47;53.32;96466.28;4861448;29;20426;-76
2022/04/13 11:37:20;;;;;;;3.30;3.00;;;;;;;18.67;52.68;96464.09;4860366;29;20438;-76
2022/04/13 11:40:03;;;;;;;4.20;3.80;;;;;;;18.30;52.20;96460.44;4860310;29;20558;-76